PWSweather.com
Personal Weather Stations
Station Observations
BANEKERE1
AntwerpenBE

AntwerpenBE

Lat: 51.2809101, Lon: 4.4202713

Elevation: 40

Station Type:

http://www.akker.be

Latest ConditionsUpdated 8:10:02 AM GMT+01:01 Tuesday, Mar 3, 2015
Currently Today's Max Today's Min Today's Average
Temperature 39.4°F4.1°C 40.7°F4.8°C 37.7°F3.2°C 39.0°F3.9°C
Dew Point 35.9°F2.2°C 35.9°F2.2°C 33.9°F1.1°C 34.8°F1.6°C
Winds 9.2 mph SSW14.8 kmh SSW 9.2 mph S14.8 kmh S - 6.2 mph 10.0 kmh
Wind Gusts 10.4 mph16.7 kmh 15.0 mph24.1 kmh - -
Humidity 87% 88% 78% 85%
Pressure 30.04 in1017.3 mb 30.06 in1017.9 mb 30.03 in1016.9 mb -
Hour Temp Dew Point Humidity Winds Wind Gusts Pressure Precip Precip Rate Daily Precip Total
08:10 AM 39.4°F4.1°C 35.9°F2.2°C 87% 9.2 mph SSW14.8 kmh SSW 10.4 mph16.7 kmh 30.04 in1017.3 mb 0.00 in0.0 mm 0.00 in/hr0.0 mm/hr 0.00 in0.0 mm
08:00 AM 39.2°F4.0°C 35.7°F2.1°C 87% 5.8 mph SW9.3 kmh SW 9.2 mph14.8 kmh 30.04 in1017.3 mb 0.00 in0.0 mm 0.00 in/hr0.0 mm/hr 0.00 in0.0 mm
07:50 AM 39.1°F3.9°C 35.6°F2.0°C 87% 8.1 mph S13.0 kmh S 11.5 mph18.5 kmh 30.05 in1017.6 mb 0.00 in0.0 mm 0.00 in/hr0.0 mm/hr 0.00 in0.0 mm
07:40 AM 39.0°F3.9°C 35.7°F2.1°C 88% 4.6 mph S7.4 kmh S 5.8 mph9.3 kmh 30.05 in1017.6 mb 0.00 in0.0 mm 0.00 in/hr0.0 mm/hr 0.00 in0.0 mm
07:30 AM 38.9°F3.8°C 35.6°F2.0°C 88% 8.1 mph S13.0 kmh S 11.5 mph18.5 kmh 30.05 in1017.6 mb 0.00 in0.0 mm 0.00 in/hr0.0 mm/hr 0.00 in0.0 mm
07:20 AM 38.7°F3.7°C 35.5°F1.9°C 88% 4.6 mph SSW7.4 kmh SSW 12.7 mph20.4 kmh 30.06 in1017.9 mb 0.00 in0.0 mm 0.00 in/hr0.0 mm/hr 0.00 in0.0 mm
07:10 AM 38.6°F3.7°C 35.3°F1.8°C 88% 5.8 mph SW9.3 kmh SW 9.2 mph14.8 kmh 30.06 in1017.9 mb 0.00 in0.0 mm 0.00 in/hr0.0 mm/hr 0.00 in0.0 mm
07:00 AM 38.4°F3.6°C 35.2°F1.8°C 88% 8.1 mph SSW13.0 kmh SSW 11.5 mph18.5 kmh 30.06 in1017.9 mb 0.00 in0.0 mm 0.00 in/hr0.0 mm/hr 0.00 in0.0 mm
06:50 AM 38.3°F3.5°C 35.1°F1.7°C 88% 6.9 mph SSW11.1 kmh SSW 11.5 mph18.5 kmh 30.06 in1017.9 mb 0.00 in0.0 mm 0.00 in/hr0.0 mm/hr 0.00 in0.0 mm
06:40 AM 38.2°F3.4°C 35.0°F1.7°C 88% 6.9 mph SSW11.1 kmh SSW 9.2 mph14.8 kmh 30.06 in1017.9 mb 0.00 in0.0 mm 0.00 in/hr0.0 mm/hr 0.00 in0.0 mm
06:30 AM 38.0°F3.3°C 34.8°F1.6°C 88% 5.8 mph S9.3 kmh S 8.1 mph13.0 kmh 30.06 in1017.9 mb 0.00 in0.0 mm 0.00 in/hr0.0 mm/hr 0.00 in0.0 mm
06:20 AM 37.8°F3.2°C 34.6°F1.4°C 88% 6.9 mph SW11.1 kmh SW 8.1 mph13.0 kmh 30.06 in1017.9 mb 0.00 in0.0 mm 0.00 in/hr0.0 mm/hr 0.00 in0.0 mm
06:10 AM 37.7°F3.2°C 34.2°F1.2°C 87% 5.8 mph SSW9.3 kmh SSW 9.2 mph14.8 kmh 30.06 in1017.9 mb 0.00 in0.0 mm 0.00 in/hr0.0 mm/hr 0.00 in0.0 mm
06:00 AM 37.8°F3.2°C 34.3°F1.3°C 87% 5.8 mph SSW9.3 kmh SSW 8.1 mph13.0 kmh 30.06 in1017.9 mb 0.00 in0.0 mm 0.00 in/hr0.0 mm/hr 0.00 in0.0 mm
05:50 AM 37.9°F3.3°C 34.4°F1.3°C 87% 8.1 mph S13.0 kmh S 9.2 mph14.8 kmh 30.06 in1017.9 mb 0.00 in0.0 mm 0.00 in/hr0.0 mm/hr 0.00 in0.0 mm
05:40 AM 38.0°F3.3°C 34.5°F1.4°C 87% 4.6 mph S7.4 kmh S 10.4 mph16.7 kmh 30.06 in1017.9 mb 0.00 in0.0 mm 0.00 in/hr0.0 mm/hr 0.00 in0.0 mm
05:30 AM 38.2°F3.4°C 34.7°F1.5°C 87% 5.8 mph SSW9.3 kmh SSW 8.1 mph13.0 kmh 30.06 in1017.9 mb 0.00 in0.0 mm 0.00 in/hr0.0 mm/hr 0.00 in0.0 mm
05:20 AM 38.4°F3.6°C 34.6°F1.4°C 86% 8.1 mph S13.0 kmh S 11.5 mph18.5 kmh 30.06 in1017.9 mb 0.00 in0.0 mm 0.00 in/hr0.0 mm/hr 0.00 in0.0 mm
05:10 AM 38.6°F3.7°C 34.8°F1.6°C 86% 6.9 mph S11.1 kmh S 8.1 mph13.0 kmh 30.06 in1017.9 mb 0.00 in0.0 mm 0.00 in/hr0.0 mm/hr 0.00 in0.0 mm
05:00 AM 38.7°F3.7°C 35.2°F1.8°C 87% 4.6 mph S7.4 kmh S 6.9 mph11.1 kmh 30.06 in1017.9 mb 0.00 in0.0 mm 0.00 in/hr0.0 mm/hr 0.00 in0.0 mm
04:50 AM 38.7°F3.7°C 35.2°F1.8°C 87% 5.8 mph SW9.3 kmh SW 10.4 mph16.7 kmh 30.06 in1017.9 mb 0.00 in0.0 mm 0.00 in/hr0.0 mm/hr 0.00 in0.0 mm
04:40 AM 38.8°F3.8°C 35.2°F1.8°C 87% 3.5 mph SSW5.6 kmh SSW 4.6 mph7.4 kmh 30.06 in1017.9 mb 0.00 in0.0 mm 0.00 in/hr0.0 mm/hr 0.00 in0.0 mm
04:30 AM 38.8°F3.8°C 35.0°F1.7°C 86% 3.5 mph SSW5.6 kmh SSW 6.9 mph11.1 kmh 30.06 in1017.9 mb 0.00 in0.0 mm 0.00 in/hr0.0 mm/hr 0.00 in0.0 mm
04:20 AM 38.9°F3.8°C 35.1°F1.7°C 86% 6.9 mph SSW11.1 kmh SSW 10.4 mph16.7 kmh 30.06 in1017.9 mb 0.00 in0.0 mm 0.00 in/hr0.0 mm/hr 0.00 in0.0 mm
04:10 AM 38.9°F3.8°C 35.1°F1.7°C 86% 6.9 mph SSW11.1 kmh SSW 12.7 mph20.4 kmh 30.05 in1017.6 mb 0.00 in0.0 mm 0.00 in/hr0.0 mm/hr 0.00 in0.0 mm
04:00 AM 38.9°F3.8°C 35.1°F1.7°C 86% 9.2 mph S14.8 kmh S 15.0 mph24.1 kmh 30.06 in1017.9 mb 0.00 in0.0 mm 0.00 in/hr0.0 mm/hr 0.00 in0.0 mm
03:50 AM 39.0°F3.9°C 35.2°F1.8°C 86% 9.2 mph SSW14.8 kmh SSW 11.5 mph18.5 kmh 30.06 in1017.9 mb 0.00 in0.0 mm 0.00 in/hr0.0 mm/hr 0.00 in0.0 mm
03:40 AM 39.0°F3.9°C 35.2°F1.8°C 86% 5.8 mph SSW9.3 kmh SSW 8.1 mph13.0 kmh 30.06 in1017.9 mb 0.00 in0.0 mm 0.00 in/hr0.0 mm/hr 0.00 in0.0 mm
03:30 AM 39.0°F3.9°C 35.2°F1.8°C 86% 6.9 mph SW11.1 kmh SW 9.2 mph14.8 kmh 30.06 in1017.9 mb 0.00 in0.0 mm 0.00 in/hr0.0 mm/hr 0.00 in0.0 mm
03:20 AM 39.0°F3.9°C 35.2°F1.8°C 86% 6.9 mph SSW11.1 kmh SSW 12.7 mph20.4 kmh 30.06 in1017.9 mb 0.00 in0.0 mm 0.00 in/hr0.0 mm/hr 0.00 in0.0 mm
03:10 AM 38.9°F3.8°C 34.8°F1.6°C 85% 5.8 mph SW9.3 kmh SW 11.5 mph18.5 kmh 30.06 in1017.9 mb 0.00 in0.0 mm 0.00 in/hr0.0 mm/hr 0.00 in0.0 mm
03:00 AM 38.9°F3.8°C 34.8°F1.6°C 85% 5.8 mph SSW9.3 kmh SSW 10.4 mph16.7 kmh 30.06 in1017.9 mb 0.00 in0.0 mm 0.00 in/hr0.0 mm/hr 0.00 in0.0 mm
02:50 AM 38.8°F3.8°C 34.4°F1.3°C 84% 4.6 mph SSW7.4 kmh SSW 8.1 mph13.0 kmh 30.06 in1017.9 mb 0.00 in0.0 mm 0.00 in/hr0.0 mm/hr 0.00 in0.0 mm
02:40 AM 38.7°F3.7°C 34.3°F1.3°C 84% 4.6 mph SW7.4 kmh SW 10.4 mph16.7 kmh 30.06 in1017.9 mb 0.00 in0.0 mm 0.00 in/hr0.0 mm/hr 0.00 in0.0 mm
02:30 AM 38.7°F3.7°C 34.0°F1.1°C 83% 5.8 mph SSW9.3 kmh SSW 9.2 mph14.8 kmh 30.06 in1017.9 mb 0.00 in0.0 mm 0.00 in/hr0.0 mm/hr 0.00 in0.0 mm
02:20 AM 38.8°F3.8°C 34.1°F1.2°C 83% 4.6 mph S7.4 kmh S 6.9 mph11.1 kmh 30.06 in1017.9 mb 0.00 in0.0 mm 0.00 in/hr0.0 mm/hr 0.00 in0.0 mm
02:10 AM 38.9°F3.8°C 34.2°F1.2°C 83% 4.6 mph S7.4 kmh S 8.1 mph13.0 kmh 30.06 in1017.9 mb 0.00 in0.0 mm 0.00 in/hr0.0 mm/hr 0.00 in0.0 mm
02:00 AM 38.9°F3.8°C 33.9°F1.1°C 82% 3.5 mph S5.6 kmh S 6.9 mph11.1 kmh 30.06 in1017.9 mb 0.00 in0.0 mm 0.00 in/hr0.0 mm/hr 0.00 in0.0 mm
01:50 AM 39.1°F3.9°C 34.1°F1.2°C 82% 5.8 mph S9.3 kmh S 9.2 mph14.8 kmh 30.06 in1017.9 mb 0.00 in0.0 mm 0.00 in/hr0.0 mm/hr 0.00 in0.0 mm
01:40 AM 39.3°F4.1°C 34.0°F1.1°C 81% 8.1 mph SSW13.0 kmh SSW 11.5 mph18.5 kmh 30.06 in1017.9 mb 0.00 in0.0 mm 0.00 in/hr0.0 mm/hr 0.00 in0.0 mm
01:30 AM 39.4°F4.1°C 34.1°F1.2°C 81% 8.1 mph SSW13.0 kmh SSW 10.4 mph16.7 kmh 30.05 in1017.6 mb 0.00 in0.0 mm 0.00 in/hr0.0 mm/hr 0.00 in0.0 mm
01:20 AM 39.6°F4.2°C 34.2°F1.2°C 81% 6.9 mph SSW11.1 kmh SSW 10.4 mph16.7 kmh 30.05 in1017.6 mb 0.00 in0.0 mm 0.00 in/hr0.0 mm/hr 0.00 in0.0 mm
01:10 AM 39.7°F4.3°C 34.0°F1.1°C 80% 5.8 mph SW9.3 kmh SW 5.8 mph9.3 kmh 30.05 in1017.6 mb 0.00 in0.0 mm 0.00 in/hr0.0 mm/hr 0.00 in0.0 mm
01:00 AM 40.0°F4.4°C 34.3°F1.3°C 80% 5.8 mph SSW9.3 kmh SSW 8.1 mph13.0 kmh 30.05 in1017.6 mb 0.00 in0.0 mm 0.00 in/hr0.0 mm/hr 0.00 in0.0 mm
12:50 AM 40.2°F4.6°C 34.6°F1.4°C 80% 6.9 mph SSW11.1 kmh SSW 10.4 mph16.7 kmh 30.05 in1017.6 mb 0.00 in0.0 mm 0.00 in/hr0.0 mm/hr 0.00 in0.0 mm
12:40 AM 40.2°F4.6°C 34.2°F1.2°C 79% 3.5 mph SSW5.6 kmh SSW 8.1 mph13.0 kmh 30.04 in1017.3 mb 0.00 in0.0 mm 0.00 in/hr0.0 mm/hr 0.00 in0.0 mm
12:30 AM 40.4°F4.7°C 34.4°F1.3°C 79% 4.6 mph SW7.4 kmh SW 8.1 mph13.0 kmh 30.04 in1017.3 mb 0.00 in0.0 mm 0.00 in/hr0.0 mm/hr 0.00 in0.0 mm
12:20 AM 40.7°F4.8°C 34.4°F1.3°C 78% 5.8 mph SSW9.3 kmh SSW 10.4 mph16.7 kmh 30.03 in1016.9 mb 0.00 in0.0 mm 0.00 in/hr0.0 mm/hr 0.00 in0.0 mm
12:10 AM 40.7°F4.8°C 34.7°F1.5°C 79% 8.1 mph S13.0 kmh S 10.4 mph16.7 kmh 30.03 in1016.9 mb 0.00 in0.0 mm 0.00 in/hr0.0 mm/hr 0.00 in0.0 mm
12:00 AM 40.7°F4.8°C 34.4°F1.3°C 78% 4.6 mph SW7.4 kmh SW 8.1 mph13.0 kmh 30.03 in1016.9 mb 0.00 in0.0 mm 0.00 in/hr0.0 mm/hr 0.00 in0.0 mm